Time;durP1;ratioP1;P1;durP2;ratioP2;P2;SDS_P1;SDS_P2;PMS_P1;PMS_P2;Temp;Humidity;BMP_temperature;BMP_pressure;BME280_temperature;BME280_humidity;BME280_pressure;Samples;Min_cycle;Max_cycle;Signal;HPM_P1;HPM_P2
2022/08/23 00:01:47;;;;;;;3.33;1.40;;;28.50;42.70;;;;;;5035634;28;88725;-50
2022/08/23 00:04:18;;;;;;;0.93;0.93;;;28.50;42.80;;;;;;5037326;28;88803;-50
2022/08/23 00:06:46;;;;;;;2.87;1.40;;;28.50;42.80;;;;;;5042618;28;87162;-50
2022/08/23 00:09:15;;;;;;;2.03;1.20;;;28.50;42.80;;;;;;5042531;27;86370;-50
2022/08/23 00:11:44;;;;;;;1.27;1.17;;;28.50;42.80;;;;;;5041040;28;88253;-50
2022/08/23 00:14:14;;;;;;;1.73;1.23;;;28.50;42.90;;;;;;5042309;28;88901;-50
2022/08/23 00:16:43;;;;;;;3.23;1.03;;;28.50;42.90;;;;;;5042686;28;87809;-50
2022/08/23 00:19:12;;;;;;;2.07;1.33;;;28.50;43.00;;;;;;5042213;28;87043;-50
2022/08/23 00:21:41;;;;;;;3.57;1.33;;;28.50;43.00;;;;;;5042675;27;87051;-50
2022/08/23 00:24:10;;;;;;;0.90;0.87;;;28.50;43.00;;;;;;5041576;28;87863;-50
2022/08/23 00:26:51;;;;;;;2.93;1.10;;;28.50;43.00;;;;;;5025995;28;87134;-50
2022/08/23 00:29:19;;;;;;;3.90;1.10;;;28.40;43.00;;;;;;5042913;28;87189;-51
2022/08/23 00:31:49;;;;;;;1.10;0.90;;;28.40;43.10;;;;;;5041928;28;88262;-50
2022/08/23 00:34:17;;;;;;;3.30;1.13;;;28.50;43.20;;;;;;5041553;27;87784;-51
2022/08/23 00:36:45;;;;;;;3.27;1.10;;;28.50;43.20;;;;;;5041419;28;87082;-50
2022/08/23 00:39:13;;;;;;;2.40;1.13;;;28.50;43.20;;;;;;5041528;28;87029;-50
2022/08/23 00:41:41;;;;;;;1.20;1.10;;;28.50;43.30;;;;;;5041082;28;90142;-50
2022/08/23 00:49:47;;;;;;;5.10;1.40;;;28.50;43.40;;;;;;5015432;28;87111;-50
2022/08/23 00:52:19;;;;;;;1.30;1.00;;;28.50;43.40;;;;;;5040770;28;88191;-50
2022/08/23 00:54:47;;;;;;;3.43;1.23;;;28.40;43.40;;;;;;5040940;28;88988;-50
2022/08/23 00:57:18;;;;;;;2.33;1.27;;;28.50;44.10;;;;;;5041920;27;87064;-51
2022/08/23 00:59:45;;;;;;;2.33;1.47;;;28.50;43.50;;;;;;5042124;28;86202;-50
2022/08/23 01:02:15;;;;;;;3.07;1.50;;;28.50;43.50;;;;;;5041533;27;87868;-50
2022/08/23 01:04:45;;;;;;;2.10;1.43;;;28.50;43.60;;;;;;5041787;28;87793;-50
2022/08/23 01:07:15;;;;;;;3.10;1.77;;;28.50;43.70;;;;;;5040832;28;87934;-50
2022/08/23 01:09:43;;;;;;;2.93;1.60;;;28.50;43.60;;;;;;5041740;28;87110;-51
2022/08/23 01:12:15;;;;;;;4.07;1.50;;;28.50;43.60;;;;;;5041303;28;88773;-51
2022/08/23 01:14:47;;;;;;;4.00;1.17;;;28.40;43.60;;;;;;5041925;27;87675;-50
2022/08/23 01:17:20;;;;;;;1.90;1.20;;;28.50;44.30;;;;;;5041959;28;87062;-49
2022/08/23 01:19:50;;;;;;;4.33;1.80;;;28.40;43.60;;;;;;5042154;28;87049;-49
2022/08/23 01:22:21;;;;;;;2.63;1.67;;;28.40;43.60;;;;;;5040980;28;88301;-49
2022/08/23 01:24:51;;;;;;;8.40;2.40;;;28.40;43.60;;;;;;5040442;28;88840;-49
2022/08/23 01:27:34;;;;;;;8.30;2.53;;;28.40;43.60;;;;;;5041071;28;87015;-49
2022/08/23 01:30:04;;;;;;;3.60;1.70;;;28.40;43.60;;;;;;5037460;28;88031;-49
2022/08/23 01:32:32;;;;;;;4.03;1.83;;;28.40;43.60;;;;;;5040759;27;90227;-49
2022/08/23 01:35:00;;;;;;;5.40;2.07;;;28.40;43.70;;;;;;5040407;28;87750;-50
2022/08/23 01:37:28;;;;;;;3.97;2.40;;;28.40;43.70;;;;;;5022394;28;86875;-49
2022/08/23 01:39:57;;;;;;;5.23;2.20;;;28.40;43.70;;;;;;5020899;28;87107;-49
2022/08/23 01:42:26;;;;;;;7.60;2.80;;;28.40;43.70;;;;;;5021108;28;87903;-49
2022/08/23 01:44:54;;;;;;;5.60;2.33;;;28.40;43.70;;;;;;5021392;28;89746;-49
2022/08/23 01:47:23;;;;;;;5.73;2.80;;;28.40;43.70;;;;;;5020895;28;87065;-49
2022/08/23 01:49:50;;;;;;;3.97;2.50;;;28.40;43.70;;;;;;5021584;28;86418;-49
2022/08/23 01:52:18;;;;;;;6.47;2.60;;;28.40;43.70;;;;;;5020839;28;89059;-49
2022/08/23 01:54:46;;;;;;;7.13;2.47;;;28.40;43.80;;;;;;5049002;27;88857;-49
2022/08/23 01:57:16;;;;;;;7.43;2.83;;;28.40;43.80;;;;;;5061038;27;87993;-49
2022/08/23 01:59:44;;;;;;;5.77;3.20;;;28.40;43.80;;;;;;5061565;27;87135;-49
2022/08/23 02:02:13;;;;;;;6.30;2.97;;;28.40;43.80;;;;;;5061152;27;88322;-49
2022/08/23 02:04:42;;;;;;;7.53;3.40;;;28.40;43.80;;;;;;5060681;27;88887;-49
2022/08/23 02:07:10;;;;;;;6.67;3.40;;;28.40;43.90;;;;;;5060973;27;87218;-49
2022/08/23 02:09:38;;;;;;;4.07;2.37;;;28.40;43.90;;;;;;5063696;27;86875;-51
2022/08/23 02:12:07;;;;;;;4.97;3.00;;;28.40;43.90;;;;;;5064767;27;87867;-49
2022/08/23 02:14:40;;;;;;;4.37;2.97;;;28.40;43.90;;;;;;5064943;27;88909;-50
2022/08/23 02:17:08;;;;;;;3.43;2.70;;;28.40;43.90;;;;;;5062941;27;86975;-49
2022/08/23 02:19:36;;;;;;;5.50;3.30;;;28.40;43.90;;;;;;5064790;27;86884;-49
2022/08/23 02:22:06;;;;;;;3.10;2.57;;;28.40;44.00;;;;;;5063685;27;91840;-49
2022/08/23 02:24:34;;;;;;;3.13;2.17;;;28.40;44.00;;;;;;5052375;27;89914;-49
2022/08/23 02:27:04;;;;;;;6.30;2.50;;;28.40;44.10;;;;;;5063117;27;87065;-50
2022/08/23 02:29:34;;;;;;;4.73;2.73;;;28.40;44.00;;;;;;5064488;27;87050;-49
2022/08/23 02:32:07;;;;;;;5.87;3.03;;;28.40;44.00;;;;;;5064468;27;89050;-49
2022/08/23 02:34:36;;;;;;;4.20;2.73;;;28.40;44.00;;;;;;5064671;27;87871;-49
2022/08/23 02:37:04;;;;;;;5.00;3.07;;;28.40;44.00;;;;;;5064209;27;87000;-49
2022/08/23 02:39:32;;;;;;;5.87;3.37;;;28.40;44.00;;;;;;5064543;27;86269;-49
2022/08/23 02:42:00;;;;;;;3.57;2.83;;;28.40;44.00;;;;;;5064169;27;89263;-50
2022/08/23 02:44:33;;;;;;;3.97;2.53;;;28.40;44.10;;;;;;5064010;27;89000;-49
2022/08/23 02:47:01;;;;;;;6.77;3.10;;;28.40;44.10;;;;;;5063691;27;87821;-49
2022/08/23 02:49:30;;;;;;;5.00;2.93;;;28.40;44.10;;;;;;5064116;27;86978;-50
2022/08/23 02:51:58;;;;;;;4.80;2.77;;;28.40;44.10;;;;;;5064082;27;89297;-49
2022/08/23 02:54:26;;;;;;;8.23;2.63;;;28.30;44.00;;;;;;5063305;27;88923;-49
2022/08/23 02:56:54;;;;;;;5.17;2.23;;;28.40;44.10;;;;;;5064160;27;87071;-49
2022/08/23 02:59:22;;;;;;;6.90;2.43;;;28.40;44.10;;;;;;5064164;27;87096;-50
2022/08/23 03:01:50;;;;;;;5.27;2.67;;;28.30;44.00;;;;;;5063770;27;89202;-50
2022/08/23 03:04:18;;;;;;;9.23;2.53;;;28.40;44.10;;;;;;5064178;27;88973;-49
2022/08/23 03:06:47;;;;;;;4.10;2.43;;;28.30;44.00;;;;;;5063915;27;87009;-49
2022/08/23 03:09:15;;;;;;;2.73;2.00;;;28.30;44.10;;;;;;5063181;27;86944;-49
2022/08/23 03:11:45;;;;;;;3.90;1.77;;;28.30;44.10;;;;;;5062667;27;89120;-49
2022/08/23 03:14:13;;;;;;;4.17;2.47;;;28.30;44.10;;;;;;5064103;27;89770;-49
2022/08/23 03:16:42;;;;;;;3.97;2.73;;;28.30;44.10;;;;;;5063841;27;86908;-50
2022/08/23 03:19:09;;;;;;;6.93;2.97;;;28.30;44.10;;;;;;5063333;27;87030;-50
2022/08/23 03:21:38;;;;;;;2.53;1.60;;;28.30;44.20;;;;;;5063582;27;88310;-49
2022/08/23 03:24:11;;;;;;;3.90;2.53;;;28.30;44.20;;;;;;5060687;27;88754;-49
2022/08/23 03:26:41;;;;;;;6.33;1.90;;;28.30;44.20;;;;;;5043278;28;87162;-50
2022/08/23 03:29:09;;;;;;;3.87;2.03;;;28.30;44.20;;;;;;5043648;28;86398;-49
2022/08/23 03:31:37;;;;;;;3.03;1.87;;;28.30;44.10;;;;;;5042624;28;89066;-49
2022/08/23 03:34:05;;;;;;;5.00;2.07;;;28.30;44.10;;;;;;5042952;28;87877;-49
2022/08/23 03:36:33;;;;;;;4.70;2.00;;;28.30;44.10;;;;;;5042445;28;90389;-49
2022/08/23 03:39:01;;;;;;;16.03;5.37;;;28.30;44.80;;;;;;5043006;28;87082;-49
2022/08/23 03:41:30;;;;;;;6.30;2.83;;;28.30;44.10;;;;;;5042632;28;89112;-49
2022/08/23 03:43:58;;;;;;;5.80;2.27;;;28.30;44.10;;;;;;5043024;27;87790;-49
2022/08/23 03:46:26;;;;;;;4.20;1.83;;;28.30;44.10;;;;;;5043383;28;86939;-49
2022/08/23 03:49:01;;;;;;;3.73;2.30;;;28.30;44.10;;;;;;5043018;28;87034;-49
2022/08/23 03:51:29;;;;;;;5.97;2.90;;;28.30;44.20;;;;;;5042585;28;89120;-49
2022/08/23 03:53:57;;;;;;;4.23;2.43;;;28.30;44.20;;;;;;5044284;27;88870;-49
2022/08/23 03:56:26;;;;;;;6.57;3.10;;;28.30;44.20;;;;;;5062813;27;87028;-49
2022/08/23 03:58:56;;;;;;;3.17;2.27;;;28.30;44.20;;;;;;5062365;27;86846;-50
2022/08/23 04:01:24;;;;;;;3.77;2.53;;;28.30;44.30;;;;;;5061563;27;89083;-49
2022/08/23 04:03:58;;;;;;;4.67;3.20;;;28.30;44.30;;;;;;5063145;27;88663;-50
2022/08/23 04:06:27;;;;;;;7.27;2.80;;;28.30;44.30;;;;;;5063277;27;86865;-50
2022/08/23 04:08:55;;;;;;;6.23;3.10;;;28.30;44.30;;;;;;5062985;27;86858;-49
2022/08/23 04:11:23;;;;;;;5.00;2.77;;;28.30;44.40;;;;;;5061697;27;88133;-49
2022/08/23 04:13:51;;;;;;;6.17;2.90;;;28.30;44.40;;;;;;5062906;27;89037;-49
2022/08/23 04:16:20;;;;;;;4.93;2.80;;;28.30;44.40;;;;;;5062419;27;87429;-50
2022/08/23 04:18:48;;;;;;;4.00;2.93;;;28.30;44.40;;;;;;5063758;27;86689;-49
2022/08/23 04:21:18;;;;;;;4.77;2.60;;;28.30;44.40;;;;;;5062063;27;89229;-49
2022/08/23 04:23:46;;;;;;;5.80;2.83;;;28.30;44.50;;;;;;5062676;27;87383;-51
2022/08/23 04:26:14;;;;;;;5.80;2.47;;;28.30;44.50;;;;;;5042798;27;87961;-49
2022/08/23 04:28:43;;;;;;;2.80;1.93;;;28.30;44.60;;;;;;5042350;28;87029;-51
2022/08/23 04:31:11;;;;;;;4.87;2.17;;;28.30;44.60;;;;;;5041905;27;89112;-49
2022/08/23 04:33:40;;;;;;;4.20;2.27;;;28.30;44.60;;;;;;5041815;28;86928;-49
2022/08/23 04:36:08;;;;;;;4.43;2.70;;;28.30;44.50;;;;;;5041774;28;86928;-50
2022/08/23 04:38:36;;;;;;;4.67;2.67;;;28.30;44.50;;;;;;5042533;28;87298;-50
2022/08/23 04:43:49;;;;;;;4.77;2.63;;;28.30;44.60;;;;;;5041003;28;88940;-49
2022/08/23 04:46:17;;;;;;;3.70;2.40;;;28.30;44.60;;;;;;5042332;28;86954;-49
2022/08/23 04:48:47;;;;;;;4.73;2.77;;;28.20;44.50;;;;;;5041955;28;87089;-49
2022/08/23 04:51:15;;;;;;;3.50;2.73;;;28.20;44.50;;;;;;5041374;28;90009;-49
2022/08/23 04:53:43;;;;;;;6.43;2.40;;;28.20;44.50;;;;;;5042128;28;89908;-49
2022/08/23 04:56:11;;;;;;;5.53;2.67;;;28.20;44.50;;;;;;5059099;27;86813;-50
2022/08/23 04:58:40;;;;;;;3.60;2.00;;;28.20;44.50;;;;;;5062203;27;87115;-50
2022/08/23 05:01:09;;;;;;;6.03;1.80;;;28.20;44.50;;;;;;5061400;27;89272;-50
2022/08/23 05:03:37;;;;;;;4.23;1.53;;;28.30;44.70;;;;;;5062062;27;88944;-50
2022/08/23 05:06:07;;;;;;;3.73;2.00;;;28.30;44.60;;;;;;5062080;27;86783;-49
2022/08/23 05:08:35;;;;;;;3.27;1.40;;;28.30;44.70;;;;;;5062701;27;86124;-49
2022/08/23 05:11:03;;;;;;;7.57;2.20;;;28.30;44.70;;;;;;5061725;27;89154;-49
2022/08/23 05:13:31;;;;;;;4.30;1.63;;;28.20;44.60;;;;;;5061329;27;88958;-50
2022/08/23 05:16:01;;;;;;;3.30;1.70;;;28.20;44.60;;;;;;5061346;27;87786;-49
2022/08/23 05:18:29;;;;;;;2.60;2.00;;;28.20;44.70;;;;;;5062180;27;86918;-49
2022/08/23 05:20:57;;;;;;;2.83;2.07;;;28.20;44.70;;;;;;5061836;27;89347;-49
2022/08/23 05:23:27;;;;;;;1.50;1.40;;;28.20;44.80;;;;;;5061495;27;88848;-49
2022/08/23 05:25:59;;;;;;;2.57;2.20;;;28.20;44.80;;;;;;5057440;27;86939;-49
2022/08/23 05:28:28;;;;;;;2.40;1.43;;;28.20;44.90;;;;;;5021117;28;87136;-49
2022/08/23 05:30:58;;;;;;;3.23;1.90;;;28.20;45.00;;;;;;5020917;28;88213;-49
2022/08/23 05:33:29;;;;;;;5.53;1.80;;;28.20;45.00;;;;;;5021425;28;88832;-49
2022/08/23 05:35:57;;;;;;;2.27;1.40;;;28.20;45.00;;;;;;5020949;28;87115;-49
2022/08/23 05:38:25;;;;;;;4.67;1.83;;;28.20;45.10;;;;;;5021101;28;87092;-49
2022/08/23 05:40:56;;;;;;;1.70;1.50;;;28.10;45.10;;;;;;5036400;28;89107;-49
2022/08/23 05:43:26;;;;;;;2.43;1.80;;;28.20;45.20;;;;;;5042522;27;89716;-49
2022/08/23 05:46:00;;;;;;;6.03;1.80;;;28.20;45.20;;;;;;5044724;28;86919;-49
2022/08/23 05:48:28;;;;;;;6.10;1.63;;;28.20;45.30;;;;;;5043635;28;87549;-49
2022/08/23 05:50:56;;;;;;;2.67;1.33;;;28.20;45.30;;;;;;5044299;28;87927;-50
2022/08/23 05:53:24;;;;;;;3.63;2.07;;;28.20;45.20;;;;;;5043005;28;89132;-49
2022/08/23 05:55:53;;;;;;;2.27;1.60;;;28.30;45.20;;;;;;5042954;28;87049;-49
2022/08/23 05:58:21;;;;;;;4.43;1.50;;;28.30;45.20;;;;;;5042574;28;86264;-51
2022/08/23 06:00:49;;;;;;;2.50;1.40;;;28.40;45.30;;;;;;5044884;28;88851;-50
2022/08/23 06:03:17;;;;;;;3.53;1.43;;;28.40;45.20;;;;;;5043701;28;88905;-49
2022/08/23 06:05:46;;;;;;;3.10;1.30;;;28.50;45.30;;;;;;5043449;28;87987;-50
2022/08/23 06:08:14;;;;;;;4.57;1.40;;;28.50;45.30;;;;;;5043945;28;87056;-49
2022/08/23 06:10:42;;;;;;;4.73;1.90;;;28.50;45.30;;;;;;5043563;28;89150;-50
2022/08/23 06:13:11;;;;;;;1.40;1.23;;;28.50;45.30;;;;;;5042969;28;87741;-51
2022/08/23 06:15:42;;;;;;;2.03;1.07;;;28.50;45.30;;;;;;5043663;28;88602;-49
2022/08/23 06:18:12;;;;;;;1.20;1.10;;;28.50;45.40;;;;;;5043337;28;87002;-49
2022/08/23 06:20:40;;;;;;;2.00;1.40;;;28.60;45.40;;;;;;5044078;28;89143;-49
2022/08/23 06:23:08;;;;;;;4.47;1.43;;;28.60;45.40;;;;;;5042936;28;88848;-50
2022/08/23 06:25:39;;;;;;;2.67;1.40;;;28.60;45.40;;;;;;5043170;28;87041;-50
2022/08/23 06:28:07;;;;;;;4.37;1.70;;;28.70;45.50;;;;;;5043441;28;87105;-49
2022/08/23 06:30:39;;;;;;;1.87;1.50;;;28.70;45.50;;;;;;5041548;28;89195;-49
2022/08/23 06:33:07;;;;;;;2.90;2.03;;;28.70;45.50;;;;;;5043219;28;87463;-50
2022/08/23 06:35:35;;;;;;;8.87;1.87;;;28.70;45.60;;;;;;5031816;27;87029;-49
2022/08/23 06:38:07;;;;;;;3.30;1.77;;;28.70;45.60;;;;;;5042742;27;87154;-51
2022/08/23 06:40:36;;;;;;;1.70;1.20;;;28.70;45.70;;;;;;5043698;27;88737;-50
2022/08/23 06:43:04;;;;;;;3.90;1.90;;;28.70;45.70;;;;;;5058173;27;88110;-50
2022/08/23 06:45:32;;;;;;;2.47;1.60;;;28.80;45.90;;;;;;5048178;27;87202;-50
2022/08/23 06:48:04;;;;;;;2.13;1.47;;;28.80;46.00;;;;;;5059655;27;86315;-50
2022/08/23 06:50:32;;;;;;;2.87;1.73;;;28.80;46.00;;;;;;5051792;27;89250;-50
2022/08/23 06:53:00;;;;;;;5.77;2.40;;;28.80;46.10;;;;;;5064040;27;88993;-50
2022/08/23 06:55:34;;;;;;;4.50;1.40;;;28.80;46.20;;;;;;5054672;27;88029;-50
2022/08/23 06:58:02;;;;;;;1.97;1.50;;;28.80;46.20;;;;;;5054856;27;87030;-50
2022/08/23 07:00:30;;;;;;;3.17;1.27;;;28.90;46.30;;;;;;5044081;28;88105;-49
2022/08/23 07:02:58;;;;;;;2.23;1.60;;;28.90;46.30;;;;;;5043592;28;87858;-49
2022/08/23 07:05:30;;;;;;;4.33;1.87;;;28.90;46.40;;;;;;5043240;28;87097;-49
2022/08/23 07:07:58;;;;;;;4.67;1.27;;;28.70;46.20;;;;;;5043954;28;86957;-49
2022/08/23 07:10:26;;;;;;;2.30;1.60;;;28.90;46.50;;;;;;5041541;28;89429;-49
2022/08/23 07:12:54;;;;;;;1.57;1.47;;;28.90;46.50;;;;;;5043919;27;89078;-50
2022/08/23 07:15:22;;;;;;;1.70;1.33;;;29.00;46.60;;;;;;5046733;27;87160;-49
2022/08/23 07:17:50;;;;;;;3.40;1.60;;;29.00;46.60;;;;;;5044935;27;87291;-50
2022/08/23 07:20:18;;;;;;;2.73;1.60;;;28.80;46.50;;;;;;5039720;28;90317;-51
2022/08/23 07:22:48;;;;;;;8.73;3.13;;;29.00;46.70;;;;;;5040687;28;89821;-51
2022/08/23 07:25:16;;;;;;;10.03;3.20;;;29.00;46.80;;;;;;5030260;28;87456;-51
2022/08/23 07:27:45;;;;;;;5.50;2.20;;;29.00;46.90;;;;;;5042362;28;87084;-50
2022/08/23 07:30:13;;;;;;;2.93;1.60;;;29.00;46.90;;;;;;5042885;28;89115;-50
2022/08/23 07:32:41;;;;;;;3.03;1.90;;;29.00;46.90;;;;;;5043066;28;88934;-50
2022/08/23 07:35:09;;;;;;;2.50;1.70;;;29.00;47.00;;;;;;5042752;28;87053;-50
2022/08/23 07:37:37;;;;;;;2.83;1.60;;;29.00;47.00;;;;;;5042488;28;86361;-50
2022/08/23 07:40:09;;;;;;;2.97;1.60;;;29.00;47.00;;;;;;5041843;28;89341;-50
2022/08/23 07:42:47;;;;;;;2.53;1.73;;;29.10;47.10;;;;;;5041680;28;87535;-50
2022/08/23 07:45:16;;;;;;;2.07;1.57;;;29.10;47.10;;;;;;5041242;28;88195;-49
2022/08/23 07:47:44;;;;;;;2.10;1.57;;;29.00;47.00;;;;;;5041461;28;86990;-50
2022/08/23 07:50:17;;;;;;;1.80;1.50;;;29.00;47.00;;;;;;5041200;28;88228;-50
2022/08/23 07:52:46;;;;;;;1.60;1.40;;;29.00;47.00;;;;;;5042522;28;88835;-50
2022/08/23 07:55:15;;;;;;;1.73;1.57;;;29.20;47.10;;;;;;5042856;28;87063;-49
2022/08/23 07:57:43;;;;;;;1.30;1.00;;;29.00;47.00;;;;;;5042925;28;87171;-50
2022/08/23 08:00:11;;;;;;;2.03;0.80;;;28.50;46.70;;;;;;5042981;28;89264;-50
2022/08/23 08:02:39;;;;;;;2.43;1.53;;;29.00;47.00;;;;;;5042887;28;88851;-50
2022/08/23 08:05:08;;;;;;;3.03;1.43;;;29.00;46.90;;;;;;5043002;28;86729;-50
2022/08/23 08:07:36;;;;;;;2.07;0.90;;;29.00;46.90;;;;;;5041123;28;87721;-50
2022/08/23 08:10:05;;;;;;;1.03;0.83;;;29.00;46.90;;;;;;5042041;28;90145;-50
2022/08/23 08:12:35;;;;;;;0.87;0.77;;;29.10;47.60;;;;;;5042422;28;89749;-49
2022/08/23 08:15:03;;;;;;;0.60;0.60;;;29.10;46.90;;;;;;5042711;28;86963;-49
2022/08/23 08:17:31;;;;;;;1.97;0.60;;;29.10;46.90;;;;;;5042573;28;86998;-50
2022/08/23 08:19:59;;;;;;;0.90;0.80;;;29.10;46.90;;;;;;5042474;28;88118;-50
2022/08/23 08:22:27;;;;;;;1.13;0.83;;;29.10;46.90;;;;;;5041564;28;88983;-50
2022/08/23 08:24:56;;;;;;;1.30;0.67;;;29.10;46.80;;;;;;5042346;28;87034;-50
2022/08/23 08:27:24;;;;;;;3.87;0.93;;;29.20;46.90;;;;;;5042219;28;86415;-50
2022/08/23 08:29:54;;;;;;;1.13;0.40;;;29.10;46.80;;;;;;5042219;28;88113;-50
2022/08/23 08:32:22;;;;;;;0.93;0.77;;;29.20;46.90;;;;;;5042085;28;88967;-50
2022/08/23 08:34:49;;;;;;;2.00;0.63;;;29.20;46.80;;;;;;5041584;28;87956;-49
2022/08/23 08:37:18;;;;;;;4.27;0.93;;;29.20;46.80;;;;;;5041550;28;87198;-50
2022/08/23 08:39:46;;;;;;;1.63;0.77;;;29.20;46.80;;;;;;5041677;28;89095;-50
2022/08/23 08:42:23;;;;;;;0.70;0.43;;;29.20;46.80;;;;;;5041074;28;88822;-49
2022/08/23 08:44:53;;;;;;;3.57;0.70;;;29.20;46.80;;;;;;5041781;28;87067;-50
2022/08/23 08:47:25;;;;;;;1.27;0.60;;;29.10;46.70;;;;;;5041412;28;87017;-50
2022/08/23 08:49:57;;;;;;;0.30;0.30;;;29.20;46.80;;;;;;5041080;28;88045;-49
2022/08/23 08:52:26;;;;;;;0.50;0.50;;;29.20;46.80;;;;;;5042355;28;87943;-50
2022/08/23 08:55:02;;;;;;;1.03;0.40;;;29.20;46.70;;;;;;5042119;28;86993;-50
2022/08/23 08:57:31;;;;;;;1.53;0.60;;;29.20;46.70;;;;;;5042185;28;86945;-50
2022/08/23 09:00:01;;;;;;;2.50;0.80;;;29.20;46.70;;;;;;5041533;28;90079;-50
2022/08/23 09:02:31;;;;;;;3.40;0.50;;;29.20;46.70;;;;;;5041759;28;88715;-50
2022/08/23 09:05:01;;;;;;;0.77;0.60;;;29.20;46.70;;;;;;5041590;28;87493;-50
2022/08/23 09:07:31;;;;;;;0.50;0.50;;;29.20;46.70;;;;;;5041423;28;88101;-49
2022/08/23 09:10:14;;;;;;;0.40;0.40;;;29.20;46.70;;;;;;5041421;28;89167;-49
2022/08/23 09:12:48;;;;;;;2.43;0.83;;;29.20;46.70;;;;;;5040860;28;89043;-49
2022/08/23 09:15:22;;;;;;;0.50;0.50;;;29.30;46.80;;;;;;5040672;28;88253;-49
2022/08/23 09:17:52;;;;;;;0.57;0.57;;;29.20;46.80;;;;;;5041167;27;86238;-50
2022/08/23 09:20:21;;;;;;;1.20;0.70;;;29.10;46.70;;;;;;5041481;28;89287;-49
2022/08/23 09:22:52;;;;;;;3.83;0.90;;;29.20;46.70;;;;;;5041404;28;89100;-49
2022/08/23 09:25:20;;;;;;;2.50;0.60;;;29.20;47.50;;;;;;5040050;28;88049;-50
2022/08/23 09:27:48;;;;;;;12.83;1.10;;;29.30;46.90;;;;;;5040032;28;87165;-50
2022/08/23 09:30:18;;;;;;;2.53;1.30;;;29.30;46.90;;;;;;5041683;28;89116;-50
2022/08/23 09:32:48;;;;;;;3.03;1.27;;;29.30;46.80;;;;;;5041438;28;89028;-50
2022/08/23 09:35:18;;;;;;;3.50;1.13;;;29.30;47.40;;;;;;5041806;28;87045;-50
2022/08/23 09:37:55;;;;;;;3.77;0.90;;;29.30;46.90;;;;;;5041779;28;86869;-50
2022/08/23 09:40:31;;;;;;;3.67;1.17;;;29.30;46.90;;;;;;5053170;27;88059;-51
2022/08/23 09:43:06;;;;;;;7.33;1.13;;;29.30;46.90;;;;;;5062519;27;91273;-50
2022/08/23 09:45:37;;;;;;;0.50;0.40;;;29.30;46.90;;;;;;5061379;27;87118;-51
2022/08/23 09:48:05;;;;;;;0.97;0.77;;;29.10;46.70;;;;;;5061872;27;86917;-50
2022/08/23 09:50:37;;;;;;;0.40;0.40;;;29.20;46.80;;;;;;5059841;27;89191;-51
2022/08/23 09:53:07;;;;;;;1.00;0.73;;;29.20;46.90;;;;;;5060907;27;87506;-50
2022/08/23 09:55:37;;;;;;;5.63;0.70;;;29.20;46.90;;;;;;5059688;27;87097;-50
2022/08/23 09:58:06;;;;;;;2.13;0.70;;;29.30;47.00;;;;;;5021540;27;87089;-50
2022/08/23 10:00:36;;;;;;;1.80;0.60;;;29.30;47.00;;;;;;5019580;28;89147;-51
2022/08/23 10:03:23;;;;;;;2.23;0.40;;;29.30;47.00;;;;;;5020131;28;87079;-51
2022/08/23 10:05:52;;;;;;;0.30;0.30;;;29.30;47.00;;;;;;5020466;28;86979;-51
2022/08/23 10:08:26;;;;;;;0.83;0.40;;;29.30;46.90;;;;;;5021110;28;86820;-50
2022/08/23 10:10:55;;;;;;;3.13;0.70;;;29.30;46.90;;;;;;5020476;28;87757;-50
2022/08/23 10:13:23;;;;;;;1.37;0.80;;;29.30;46.90;;;;;;5020934;28;88350;-51
2022/08/23 10:15:59;;;;;;;0.53;0.50;;;29.40;46.90;;;;;;5020518;28;87957;-51
2022/08/23 10:18:35;;;;;;;1.80;0.70;;;29.40;46.90;;;;;;5021269;28;87056;-51
2022/08/23 10:21:04;;;;;;;0.33;0.33;;;29.40;46.90;;;;;;5020562;28;89163;-50
2022/08/23 10:23:43;;;;;;;0.60;0.60;;;29.40;46.90;;;;;;5020830;28;87808;-49
2022/08/23 10:26:16;;;;;;;0.83;0.50;;;29.40;47.50;;;;;;5022522;28;87068;-48
2022/08/23 10:31:38;;;;;;;0.97;0.73;;;29.50;46.90;;;;;;5044304;28;89127;-49
2022/08/23 10:34:33;;;;;;;0.50;0.50;;;29.50;46.90;;;;;;5044231;28;88881;-49
2022/08/23 10:37:09;;;;;;;1.83;0.60;;;29.40;46.80;;;;;;5044442;28;87043;-50
2022/08/23 10:39:39;;;;;;;0.50;0.50;;;29.50;46.80;;;;;;5043528;28;87179;-50
2022/08/23 10:42:13;;;;;;;1.07;0.50;;;29.50;46.70;;;;;;5043440;28;89091;-50
2022/08/23 10:44:44;;;;;;;1.10;0.53;;;29.50;46.70;;;;;;5043670;28;89815;-50
2022/08/23 10:47:26;;;;;;;0.70;0.50;;;29.50;46.60;;;;;;5044072;28;86948;-51
2022/08/23 10:49:54;;;;;;;0.60;0.60;;;29.60;46.60;;;;;;5044158;28;87162;-50
2022/08/23 10:52:24;;;;;;;1.00;0.90;;;29.60;46.60;;;;;;5043735;28;89315;-50
2022/08/23 10:54:59;;;;;;;0.50;0.50;;;29.60;46.50;;;;;;5043857;27;88869;-50
2022/08/23 10:57:32;;;;;;;0.30;0.30;;;29.60;46.40;;;;;;5043400;28;87035;-50
2022/08/23 11:00:00;;;;;;;1.93;0.50;;;29.70;46.40;;;;;;5043453;28;86430;-50
2022/08/23 11:02:34;;;;;;;0.63;0.60;;;29.70;46.40;;;;;;5043695;28;89156;-50
2022/08/23 11:05:04;;;;;;;0.60;0.60;;;29.70;46.30;;;;;;5043673;27;87787;-50
2022/08/23 11:07:34;;;;;;;0.43;0.43;;;29.70;46.70;;;;;;5043137;28;87862;-50
2022/08/23 11:10:10;;;;;;;5.17;0.63;;;29.80;46.30;;;;;;5043347;28;87026;-49
2022/08/23 11:12:53;;;;;;;0.97;0.60;;;29.80;46.20;;;;;;5043746;28;89220;-50
2022/08/23 11:15:41;;;;;;;0.77;0.40;;;29.80;46.10;;;;;;5043719;28;87910;-51
2022/08/23 11:18:40;;;;;;;1.03;0.40;;;29.90;46.20;;;;;;5043789;27;87092;-51
2022/08/23 11:21:32;;;;;;;0.80;0.60;;;29.90;46.10;;;;;;5043785;28;87036;-51
2022/08/23 11:24:31;;;;;;;2.73;0.90;;;29.90;46.10;;;;;;5043227;28;89298;-50
2022/08/23 11:27:07;;;;;;;1.70;0.50;;;29.90;46.10;;;;;;5043209;28;88902;-50
2022/08/23 11:29:39;;;;;;;0.93;0.40;;;29.90;46.00;;;;;;5043781;28;86916;-50
2022/08/23 11:32:30;;;;;;;0.50;0.50;;;30.00;46.00;;;;;;5043731;28;87059;-51
2022/08/23 11:35:07;;;;;;;2.73;0.80;;;30.00;46.00;;;;;;5042232;27;89020;-51
2022/08/23 11:37:55;;;;;;;0.80;0.80;;;30.00;46.00;;;;;;5042571;27;89896;-50
2022/08/23 11:40:55;;;;;;;0.80;0.70;;;30.00;45.90;;;;;;5042951;27;87590;-51
2022/08/23 11:43:27;;;;;;;0.40;0.40;;;30.10;46.50;;;;;;5043325;28;87020;-50
2022/08/23 11:45:55;;;;;;;0.70;0.57;;;30.10;46.50;;;;;;5042452;28;89294;-52
2022/08/23 11:48:35;;;;;;;0.40;0.40;;;30.10;45.80;;;;;;5039900;27;88459;-50
2022/08/23 11:51:16;;;;;;;0.97;0.80;;;30.10;45.80;;;;;;5042706;28;86923;-50
2022/08/23 11:54:12;;;;;;;1.17;0.77;;;30.10;45.90;;;;;;5042531;28;86302;-51
2022/08/23 11:56:46;;;;;;;0.63;0.63;;;30.10;45.80;;;;;;5042281;28;87170;-52
2022/08/23 11:59:23;;;;;;;1.27;0.67;;;30.10;45.80;;;;;;5043251;28;88958;-51
2022/08/23 12:01:51;;;;;;;0.63;0.63;;;30.10;45.80;;;;;;5042379;28;87835;-51
2022/08/23 12:04:31;;;;;;;2.43;0.93;;;30.20;45.90;;;;;;5042810;28;87069;-51
2022/08/23 12:07:05;;;;;;;1.57;1.00;;;30.20;45.90;;;;;;5042648;28;88131;-53
2022/08/23 12:09:54;;;;;;;0.80;0.53;;;30.30;46.00;;;;;;5042178;27;89047;-51
2022/08/23 12:12:31;;;;;;;2.33;1.13;;;30.30;46.00;;;;;;5042299;28;87095;-52
2022/08/23 12:15:07;;;;;;;2.90;1.00;;;30.40;46.10;;;;;;5042503;28;87151;-54
2022/08/23 12:18:12;;;;;;;2.30;0.80;;;30.40;46.00;;;;;;5042007;28;88113;-52
2022/08/23 12:20:40;;;;;;;2.03;1.00;;;30.50;46.10;;;;;;5042368;27;89003;-51
2022/08/23 12:23:15;;;;;;;1.30;0.90;;;30.50;46.10;;;;;;5042452;27;87128;-52
2022/08/23 12:25:43;;;;;;;0.67;0.67;;;30.50;46.20;;;;;;5042210;28;87132;-53
2022/08/23 12:28:23;;;;;;;1.03;0.93;;;30.50;46.10;;;;;;5041501;28;89013;-52
2022/08/23 12:30:55;;;;;;;1.47;1.20;;;30.60;46.20;;;;;;5042507;28;90107;-52
2022/08/23 12:33:29;;;;;;;0.70;0.70;;;30.60;46.20;;;;;;5025080;28;86984;-51
2022/08/23 12:36:00;;;;;;;2.40;0.87;;;30.60;46.20;;;;;;5041242;27;87046;-51
2022/08/23 12:38:34;;;;;;;1.10;0.87;;;30.50;46.10;;;;;;5041383;28;89151;-51
2022/08/23 12:41:13;;;;;;;1.93;1.00;;;30.60;46.10;;;;;;5040352;28;88918;-51
2022/08/23 12:43:41;;;;;;;4.03;0.93;;;30.60;46.10;;;;;;5038011;28;87081;-51
2022/08/23 12:46:10;;;;;;;1.40;0.80;;;30.70;46.10;;;;;;5040645;28;86925;-51
2022/08/23 12:48:45;;;;;;;2.03;0.87;;;30.60;46.10;;;;;;5040262;28;87687;-51
2022/08/23 12:51:14;;;;;;;2.87;1.03;;;30.60;46.60;;;;;;5038689;28;88972;-51
2022/08/23 12:53:45;;;;;;;3.60;0.90;;;30.60;46.00;;;;;;5040276;28;88497;-51
2022/08/23 12:56:16;;;;;;;1.93;1.13;;;30.60;46.00;;;;;;5039170;28;86973;-51
2022/08/23 12:58:46;;;;;;;2.60;1.30;;;30.60;46.00;;;;;;5057423;27;89282;-51
2022/08/23 13:01:19;;;;;;;1.13;0.87;;;30.70;46.10;;;;;;5042622;27;88973;-51
2022/08/23 13:03:49;;;;;;;2.00;1.33;;;30.70;46.00;;;;;;5042213;28;86998;-51
2022/08/23 13:06:20;;;;;;;2.87;1.00;;;30.70;46.10;;;;;;5041304;28;87012;-52
2022/08/23 13:08:51;;;;;;;2.53;1.63;;;30.70;46.20;;;;;;5041667;28;88037;-52
2022/08/23 13:11:20;;;;;;;3.60;1.57;;;30.80;46.30;;;;;;5041637;28;89048;-51
2022/08/23 13:13:48;;;;;;;3.40;1.57;;;30.80;46.40;;;;;;5040755;28;87062;-51
2022/08/23 13:16:25;;;;;;;3.53;1.50;;;30.80;46.50;;;;;;5041808;27;87039;-52
2022/08/23 13:18:54;;;;;;;1.67;1.00;;;;;;;;;;5040796;27;89178;-52